Time;durP1;ratioP1;P1;durP2;ratioP2;P2;SDS_P1;SDS_P2;PMS_P1;PMS_P2;Temp;Humidity;BMP_temperature;BMP_pressure;BME280_temperature;BME280_humidity;BME280_pressure;Samples;Min_cycle;Max_cycle;Signal;HPM_P1;HPM_P2
2021/07/15 00:00:54;;;;;;;69.18;20.17;;;;;;;15.38;89.80;101594.75;4998313;28;20451;-74
2021/07/15 00:03:21;;;;;;;55.17;20.63;;;;;;;15.37;89.31;101598.44;4997881;28;20066;-75
2021/07/15 00:05:48;;;;;;;58.58;21.13;;;;;;;15.38;89.61;101610.03;4997638;28;20031;-74
2021/07/15 00:08:17;;;;;;;51.10;20.17;;;;;;;15.38;89.81;101618.91;4997489;28;20058;-74
2021/07/15 00:10:50;;;;;;;58.20;21.33;;;;;;;15.39;89.38;101622.41;4997773;28;20053;-75
2021/07/15 00:13:15;;;;;;;44.33;20.23;;;;;;;15.38;89.37;101624.25;4998009;28;20041;-74
2021/07/15 00:15:46;;;;;;;61.42;20.75;;;;;;;15.38;89.48;101624.25;4998150;28;20034;-74
2021/07/15 00:18:13;;;;;;;59.03;21.10;;;;;;;15.37;89.39;101616.38;4997885;28;20043;-74
2021/07/15 00:20:43;;;;;;;56.10;20.65;;;;;;;15.35;89.23;101624.56;4997754;28;20037;-75
2021/07/15 00:23:09;;;;;;;49.03;19.67;;;;;;;15.35;89.46;101629.94;4997669;28;20081;-75
2021/07/15 00:25:35;;;;;;;47.45;19.00;;;;;;;15.34;89.29;101630.91;4997109;28;20034;-75
2021/07/15 00:28:01;;;;;;;53.80;20.95;;;;;;;15.34;89.74;101629.06;4997063;28;20027;-74
2021/07/15 00:30:26;;;;;;;56.45;20.80;;;;;;;15.34;89.67;101633.59;4996568;28;20061;-75
2021/07/15 00:32:51;;;;;;;53.38;19.77;;;;;;;15.34;89.46;101622.88;4998022;28;20463;-74
2021/07/15 00:35:17;;;;;;;53.75;19.05;;;;;;;15.35;89.42;101629.94;4997270;28;20041;-74
2021/07/15 00:37:44;;;;;;;49.53;18.80;;;;;;;15.36;89.45;101620.91;4997021;28;20471;-74
2021/07/15 00:40:12;;;;;;;54.40;19.95;;;;;;;15.34;89.92;101621.03;4997061;28;20076;-74
2021/07/15 00:42:38;;;;;;;57.33;19.73;;;;;;;15.34;89.78;101614.81;4997445;28;20026;-73
2021/07/15 00:45:06;;;;;;;59.55;20.80;;;;;;;15.34;89.53;101623.69;4996726;28;20467;-73
2021/07/15 00:47:32;;;;;;;65.30;22.02;;;;;;;15.32;89.82;101625.69;4996630;28;20035;-73
2021/07/15 00:49:58;;;;;;;54.25;19.55;;;;;;;15.29;89.91;101626.00;4996824;28;20108;-73
2021/07/15 00:52:24;;;;;;;54.88;21.35;;;;;;;15.31;89.75;101620.50;4995825;28;20112;-73
2021/07/15 00:54:50;;;;;;;55.67;21.35;;;;;;;15.29;89.72;101633.22;4996697;28;20046;-73
2021/07/15 00:57:15;;;;;;;52.53;21.65;;;;;;;15.30;89.74;101622.34;4997011;28;20038;-74
2021/07/15 00:59:42;;;;;;;61.67;21.85;;;;;;;15.30;89.88;101624.16;4996830;28;20038;-73
2021/07/15 01:02:07;;;;;;;53.17;21.75;;;;;;;15.28;89.84;101624.31;4996961;28;20046;-73
2021/07/15 01:04:33;;;;;;;67.88;22.40;;;;;;;15.29;89.98;101622.50;4979684;28;20034;-73
2021/07/15 01:06:59;;;;;;;66.13;22.77;;;;;;;15.29;89.81;101620.66;4995114;28;20038;-74
2021/07/15 01:09:26;;;;;;;65.55;21.80;;;;;;;15.29;89.90;101607.25;4996425;28;20372;-74
2021/07/15 01:12:10;;;;;;;54.25;19.75;;;;;;;15.31;90.30;101618.66;4996948;28;20045;-74
2021/07/15 01:15:03;;;;;;;57.20;20.02;;;;;;;15.32;89.95;101627.56;4996998;28;20039;-74
2021/07/15 01:17:37;;;;;;;62.08;21.50;;;;;;;15.30;90.03;101625.03;4995213;28;20089;-76
2021/07/15 01:20:10;;;;;;;48.17;18.95;;;;;;;15.30;89.71;101619.66;4996510;28;20031;-75
2021/07/15 01:22:42;;;;;;;54.00;19.30;;;;;;;15.31;89.83;101623.19;4996512;28;20098;-74
2021/07/15 01:25:41;;;;;;;51.97;19.60;;;;;;;15.31;89.60;101628.53;4996115;28;20038;-73
2021/07/15 01:28:28;;;;;;;51.60;20.30;;;;;;;15.30;89.61;101626.84;4996680;28;20026;-73
2021/07/15 01:30:58;;;;;;;62.30;20.88;;;;;;;15.29;89.63;101628.69;4994661;28;20043;-74
2021/07/15 01:33:27;;;;;;;57.50;21.00;;;;;;;15.28;89.56;101645.75;4996525;28;20034;-75
2021/07/15 01:36:10;;;;;;;59.28;22.50;;;;;;;15.27;89.92;101637.88;4996090;28;20589;-73
2021/07/15 01:38:40;;;;;;;59.53;20.55;;;;;;;15.26;89.95;101631.69;4996099;28;20026;-74
2021/07/15 01:41:20;;;;;;;66.07;21.13;;;;;;;15.26;89.55;101638.88;4995421;28;20037;-74
2021/07/15 01:43:46;;;;;;;56.45;19.30;;;;;;;15.25;90.02;101637.19;4996261;28;20038;-74
2021/07/15 01:46:13;;;;;;;59.17;20.15;;;;;;;15.23;89.75;101631.16;4996078;28;20030;-73
2021/07/15 01:48:39;;;;;;;61.63;20.60;;;;;;;15.21;89.99;101639.34;4994550;28;20433;-74
2021/07/15 01:51:06;;;;;;;69.75;21.60;;;;;;;15.21;90.14;101638.47;4995690;28;20030;-74
2021/07/15 01:53:32;;;;;;;55.50;20.35;;;;;;;15.20;90.08;101636.78;4995554;28;20045;-74
2021/07/15 01:55:59;;;;;;;54.15;19.80;;;;;;;15.18;90.24;101639.59;4996054;28;20046;-74
2021/07/15 01:58:28;;;;;;;52.28;20.42;;;;;;;15.17;90.26;101635.25;4995726;28;20030;-74
2021/07/15 02:00:55;;;;;;;50.67;19.42;;;;;;;15.16;90.00;101637.06;4995565;28;20034;-73
2021/07/15 02:03:21;;;;;;;52.53;19.27;;;;;;;15.14;90.04;101628.34;4995834;28;20041;-73
2021/07/15 02:05:48;;;;;;;69.35;20.30;;;;;;;15.11;90.50;101631.34;4995966;28;20146;-74
2021/07/15 02:08:14;;;;;;;55.42;20.42;;;;;;;15.10;90.31;101637.69;4994883;28;20030;-74
2021/07/15 02:10:42;;;;;;;65.22;20.77;;;;;;;15.09;90.56;101635.16;4995821;28;20145;-75
2021/07/15 02:13:08;;;;;;;57.95;21.20;;;;;;;15.09;90.65;101627.97;4995389;28;20035;-74
2021/07/15 02:15:35;;;;;;;54.03;19.98;;;;;;;15.11;90.36;101638.53;4995476;28;20374;-74
2021/07/15 02:18:01;;;;;;;56.05;19.83;;;;;;;15.11;90.44;101631.34;4995011;28;20045;-84
2021/07/15 02:20:28;;;;;;;57.72;21.75;;;;;;;15.09;90.51;101627.13;4994990;28;20471;-74
2021/07/15 02:22:55;;;;;;;54.83;21.55;;;;;;;15.09;90.74;101616.38;4994947;28;20034;-74
2021/07/15 02:25:22;;;;;;;49.90;20.02;;;;;;;15.07;90.75;101610.34;4995061;28;20043;-73
2021/07/15 02:27:49;;;;;;;57.13;21.52;;;;;;;15.05;90.68;101615.84;4994975;28;20042;-74
2021/07/15 02:30:17;;;;;;;66.00;21.23;;;;;;;15.06;90.89;101608.66;4994119;28;20056;-75
2021/07/15 02:32:56;;;;;;;62.17;21.58;;;;;;;15.03;90.68;101607.09;4995088;28;20383;-75
2021/07/15 02:35:24;;;;;;;64.93;21.73;;;;;;;15.03;90.89;101609.78;4995366;28;20026;-75
2021/07/15 02:37:54;;;;;;;66.55;23.30;;;;;;;15.01;91.25;101592.19;4994980;28;20033;-75
2021/07/15 02:40:19;;;;;;;61.22;22.50;;;;;;;15.00;91.20;101594.00;4995054;28;20026;-76
2021/07/15 02:42:46;;;;;;;56.38;21.67;;;;;;;15.01;91.31;101605.59;4994784;28;20054;-74
2021/07/15 02:45:18;;;;;;;60.13;22.00;;;;;;;15.01;91.02;101595.72;4995441;28;20096;-74
2021/07/15 02:47:44;;;;;;;57.13;22.33;;;;;;;15.03;91.03;101598.22;4995030;28;20034;-74
2021/07/15 02:50:12;;;;;;;71.13;22.85;;;;;;;15.03;90.90;101598.22;4994408;28;20034;-77
2021/07/15 02:52:38;;;;;;;73.68;23.30;;;;;;;14.99;91.24;101597.69;4995416;28;20188;-75
2021/07/15 02:55:05;;;;;;;70.47;23.60;;;;;;;14.99;91.15;101593.19;4994724;28;20483;-74
2021/07/15 02:57:54;;;;;;;57.78;21.83;;;;;;;14.99;90.80;101578.94;4994688;28;20088;-74
2021/07/15 03:00:20;;;;;;;52.85;18.88;;;;;;;15.01;91.14;101594.88;4994541;28;20026;-75
2021/07/15 03:03:04;;;;;;;73.28;21.73;;;;;;;15.00;90.69;101596.69;4994922;28;20030;-74
2021/07/15 03:05:37;;;;;;;58.55;20.27;;;;;;;15.00;90.79;101596.69;4995707;28;20026;-74
2021/07/15 03:08:09;;;;;;;67.47;21.65;;;;;;;14.98;90.84;101593.31;4998809;28;20034;-73
2021/07/15 03:10:35;;;;;;;57.50;20.85;;;;;;;14.96;90.83;101582.75;4995872;28;20028;-73
2021/07/15 03:13:09;;;;;;;62.70;20.73;;;;;;;14.96;90.78;101590.78;4995516;28;20030;-74
2021/07/15 03:15:41;;;;;;;55.35;20.65;;;;;;;14.95;90.77;101602.50;4993431;28;20031;-75
2021/07/15 03:18:07;;;;;;;59.47;20.48;;;;;;;14.97;90.67;101605.91;4994583;28;20030;-74
2021/07/15 03:20:37;;;;;;;56.05;20.17;;;;;;;14.98;90.80;101594.16;4994295;28;20096;-75
2021/07/15 03:23:08;;;;;;;58.33;19.23;;;;;;;15.01;90.42;101595.72;4994804;28;20034;-76
2021/07/15 03:25:35;;;;;;;49.60;17.90;;;;;;;15.03;90.33;101603.59;4995122;28;20120;-75
2021/07/15 03:28:05;;;;;;;58.97;19.20;;;;;;;15.06;90.31;101603.28;4994477;28;20035;-73
2021/07/15 03:30:31;;;;;;;49.63;18.45;;;;;;;15.07;90.36;101608.50;4993511;28;20104;-74
2021/07/15 03:32:58;;;;;;;46.70;17.13;;;;;;;15.09;89.97;101594.94;4993808;28;20042;-74
2021/07/15 03:35:25;;;;;;;49.42;17.45;;;;;;;15.11;89.70;101601.84;4992459;28;20046;-77
2021/07/15 03:37:51;;;;;;;49.72;15.68;;;;;;;15.11;89.66;101596.50;4994088;28;20113;-74
2021/07/15 03:40:21;;;;;;;42.10;16.38;;;;;;;15.13;89.51;101602.53;4994133;28;20467;-77
2021/07/15 03:42:47;;;;;;;39.03;16.13;;;;;;;15.13;89.09;101610.56;4994547;28;20034;-74
2021/07/15 03:45:18;;;;;;;44.33;15.52;;;;;;;15.18;89.20;101611.97;4993812;28;20089;-74
2021/07/15 03:47:54;;;;;;;33.45;14.93;;;;;;;15.20;88.93;101610.84;4993816;28;20030;-74
2021/07/15 03:50:25;;;;;;;42.83;13.60;;;;;;;15.24;88.73;101616.72;4993806;28;20030;-74
2021/07/15 03:52:54;;;;;;;41.78;14.20;;;;;;;15.27;88.41;101621.78;4994391;28;20026;-74
2021/07/15 03:55:25;;;;;;;46.88;13.85;;;;;;;15.29;88.23;101617.97;4994081;28;20030;-74
2021/07/15 03:57:52;;;;;;;39.85;14.02;;;;;;;15.31;87.92;101629.38;4994522;28;20034;-75
2021/07/15 04:00:21;;;;;;;61.28;14.85;;;;;;;15.35;87.83;101616.53;4993626;28;20101;-74
2021/07/15 04:02:47;;;;;;;53.80;13.88;;;;;;;15.38;87.47;101621.59;4992414;28;20041;-75
2021/07/15 04:05:13;;;;;;;45.13;13.50;;;;;;;15.41;87.41;101623.13;4993908;28;20034;-73
2021/07/15 04:07:39;;;;;;;51.63;14.00;;;;;;;15.42;87.12;101622.97;4993639;28;20041;-74
2021/07/15 04:10:06;;;;;;;52.75;15.23;;;;;;;15.43;87.42;101623.81;4994290;28;20040;-74
2021/07/15 04:12:34;;;;;;;49.45;14.55;;;;;;;15.43;87.12;101621.13;4993178;28;20038;-73
2021/07/15 04:15:11;;;;;;;45.38;13.88;;;;;;;15.46;87.04;101626.19;4993677;28;20026;-73
2021/07/15 04:17:49;;;;;;;42.75;16.50;;;;;;;15.45;86.70;101622.66;4994214;28;20030;-73
2021/07/15 04:20:17;;;;;;;55.30;14.27;;;;;;;15.45;86.64;101635.22;4994347;28;20030;-82
2021/07/15 04:22:45;;;;;;;44.58;14.45;;;;;;;15.47;86.82;101642.13;4992330;28;20391;-74
2021/07/15 04:25:15;;;;;;;39.85;13.93;;;;;;;15.47;86.65;101646.66;4993725;28;20433;-73
2021/07/15 04:27:43;;;;;;;48.20;14.02;;;;;;;15.48;86.30;101646.50;4993409;28;20044;-74
2021/07/15 04:30:10;;;;;;;34.83;13.13;;;;;;;15.48;85.95;101645.63;4993421;28;20050;-76
2021/07/15 04:32:40;;;;;;;38.10;14.95;;;;;;;15.48;86.00;101646.50;4993311;28;20164;-74
2021/07/15 04:35:08;;;;;;;44.15;14.38;;;;;;;15.51;86.02;101648.03;4993463;28;20070;-74
2021/07/15 04:37:37;;;;;;;36.95;14.23;;;;;;;15.52;86.24;101658.63;4993312;28;20081;-74
2021/07/15 04:40:04;;;;;;;45.80;14.82;;;;;;;15.51;86.16;101651.56;4994847;28;20470;-74
2021/07/15 04:42:30;;;;;;;52.67;14.82;;;;;;;15.53;86.35;101667.50;4996945;28;20035;-74
2021/07/15 04:44:56;;;;;;;54.47;15.55;;;;;;;15.52;86.22;101655.94;4997031;28;20069;-74
2021/07/15 04:47:23;;;;;;;43.72;14.30;;;;;;;15.52;86.19;101657.75;4997892;28;20051;-74
2021/07/15 04:49:49;;;;;;;40.53;13.98;;;;;;;15.50;86.13;101662.44;4996891;28;20039;-74
2021/07/15 04:52:17;;;;;;;38.80;13.23;;;;;;;15.48;86.15;101670.63;4997275;28;20037;-73
2021/07/15 04:54:45;;;;;;;33.45;12.25;;;;;;;15.48;86.01;101659.91;4997498;28;20058;-75
2021/07/15 04:57:12;;;;;;;36.72;11.30;;;;;;;15.54;85.55;101662.97;4997315;28;20042;-74
2021/07/15 04:59:38;;;;;;;41.50;11.93;;;;;;;15.55;85.29;101670.84;4996914;28;20496;-74
2021/07/15 05:02:05;;;;;;;52.78;13.45;;;;;;;15.55;85.71;101668.16;4996446;28;20053;-74
2021/07/15 05:04:30;;;;;;;39.65;12.95;;;;;;;15.56;85.41;101675.22;4996799;28;20030;-74
2021/07/15 05:06:56;;;;;;;41.22;13.10;;;;;;;15.58;84.97;101670.53;4996536;28;20423;-74
2021/07/15 05:09:22;;;;;;;34.97;11.43;;;;;;;15.58;84.46;101670.53;4996313;28;20069;-76
2021/07/15 05:11:48;;;;;;;47.42;11.80;;;;;;;15.60;84.57;101678.44;4997093;28;20064;-74
2021/07/15 05:14:13;;;;;;;30.42;10.88;;;;;;;15.61;84.51;101675.59;4996485;28;20038;-76
2021/07/15 05:16:38;;;;;;;32.45;11.18;;;;;;;15.64;84.63;101672.63;4996604;28;20455;-73
2021/07/15 05:19:04;;;;;;;35.20;11.77;;;;;;;15.61;83.96;101664.88;4996664;28;20034;-74
2021/07/15 05:21:29;;;;;;;31.27;10.90;;;;;;;15.67;83.41;101658.94;4996509;28;20038;-73
2021/07/15 05:23:55;;;;;;;30.15;10.70;;;;;;;15.75;82.95;101668.91;4995807;28;20494;-76
2021/07/15 05:26:20;;;;;;;32.15;9.90;;;;;;;15.88;82.40;101665.00;4996334;28;20042;-77
2021/07/15 05:28:46;;;;;;;27.80;9.73;;;;;;;15.90;82.15;101674.59;4995860;28;20035;-74
2021/07/15 05:31:12;;;;;;;36.08;10.98;;;;;;;15.95;82.19;101674.13;4996155;28;20065;-75
2021/07/15 05:33:37;;;;;;;26.92;9.52;;;;;;;15.99;81.44;101678.19;4996032;28;20046;-76
2021/07/15 05:36:03;;;;;;;31.63;9.85;;;;;;;16.05;81.71;101672.22;4996006;28;20538;-75
2021/07/15 05:38:29;;;;;;;28.83;9.95;;;;;;;16.02;81.96;101670.66;4995874;28;20471;-72
2021/07/15 05:40:54;;;;;;;46.58;10.55;;;;;;;15.93;82.18;101671.59;4995710;28;20062;-74
2021/07/15 05:43:20;;;;;;;37.70;10.18;;;;;;;15.92;82.30;101677.97;4995977;28;20437;-73
2021/07/15 05:45:45;;;;;;;29.35;9.38;;;;;;;15.92;82.04;101677.97;4995548;28;20101;-73
2021/07/15 05:48:10;;;;;;;39.70;10.43;;;;;;;15.92;82.43;101688.69;4995250;28;20045;-72
2021/07/15 05:50:36;;;;;;;27.98;9.77;;;;;;;15.95;81.79;101687.56;4994164;28;20041;-73
2021/07/15 05:53:02;;;;;;;28.85;9.02;;;;;;;15.94;82.08;101693.91;4995007;28;20045;-71
2021/07/15 05:55:28;;;;;;;24.13;9.45;;;;;;;15.95;81.65;101693.75;4996155;28;20113;-72
2021/07/15 05:57:53;;;;;;;35.42;9.80;;;;;;;15.92;81.72;101698.59;4995080;28;20169;-74
2021/07/15 06:00:19;;;;;;;34.15;10.65;;;;;;;15.92;82.18;101696.75;4994057;28;20096;-74
2021/07/15 06:02:44;;;;;;;24.75;9.32;;;;;;;15.91;81.96;101696.91;4995553;28;20031;-74
2021/07/15 06:05:10;;;;;;;41.47;10.40;;;;;;;15.88;82.11;101699.88;4995271;28;20038;-73
2021/07/15 06:07:36;;;;;;;32.90;9.90;;;;;;;15.89;82.04;101699.75;4994730;28;20034;-74
2021/07/15 06:10:04;;;;;;;25.95;9.82;;;;;;;15.91;81.51;101702.25;4994925;28;20038;-72
2021/07/15 06:12:29;;;;;;;34.05;9.48;;;;;;;15.86;82.12;101708.94;4994981;28;20037;-73
2021/07/15 06:14:54;;;;;;;35.35;10.05;;;;;;;15.86;81.70;101710.78;4995121;28;20035;-73
2021/07/15 06:17:20;;;;;;;39.58;9.98;;;;;;;15.86;81.89;101713.47;4994949;28;20057;-73
2021/07/15 06:19:46;;;;;;;29.20;10.07;;;;;;;15.84;82.07;101710.09;4994880;28;20387;-72
2021/07/15 06:22:11;;;;;;;24.33;9.32;;;;;;;15.84;82.03;101712.78;4995555;28;20069;-72
2021/07/15 06:24:37;;;;;;;32.40;9.60;;;;;;;15.84;81.89;101716.31;4995080;28;20431;-72
2021/07/15 06:27:02;;;;;;;28.60;10.52;;;;;;;15.88;82.34;101721.34;4995013;28;20030;-72
2021/07/15 06:29:28;;;;;;;39.58;11.23;;;;;;;15.96;82.25;101718.75;4995843;28;20109;-72
2021/07/15 06:31:53;;;;;;;34.40;11.00;;;;;;;16.06;81.16;101713.31;4994642;28;20054;-73
2021/07/15 06:34:19;;;;;;;34.72;10.57;;;;;;;16.13;80.69;101714.38;4993793;28;20030;-72
2021/07/15 06:36:45;;;;;;;26.02;9.35;;;;;;;16.09;80.49;101718.38;4994875;28;20034;-72
2021/07/15 06:39:12;;;;;;;28.83;9.88;;;;;;;16.11;80.15;101722.59;4994949;28;20026;-73
2021/07/15 06:41:37;;;;;;;28.83;9.10;;;;;;;16.10;80.21;101726.25;4994734;28;20080;-72
2021/07/15 06:44:03;;;;;;;29.05;8.98;;;;;;;16.30;79.36;101726.97;4994868;28;20034;-72
2021/07/15 06:46:30;;;;;;;35.58;9.70;;;;;;;16.53;79.02;101713.84;4994797;28;20034;-72
2021/07/15 06:48:55;;;;;;;25.75;9.23;;;;;;;16.65;78.54;101725.19;4995140;28;20034;-73
2021/07/15 06:51:21;;;;;;;27.13;8.82;;;;;;;16.80;78.48;101709.34;4994703;28;20045;-73
2021/07/15 06:53:48;;;;;;;30.25;9.05;;;;;;;16.99;77.57;101716.38;4994428;28;20030;-71
2021/07/15 06:56:14;;;;;;;33.05;9.65;;;;;;;17.19;76.38;101722.31;4993555;28;20038;-72
2021/07/15 06:58:39;;;;;;;27.77;8.75;;;;;;;17.50;75.01;101726.34;4994822;28;20030;-72
2021/07/15 07:01:04;;;;;;;20.90;7.70;;;;;;;17.67;73.65;101725.34;4994581;28;20109;-74
2021/07/15 07:03:30;;;;;;;20.55;8.43;;;;;;;17.63;73.86;101724.84;4994220;28;20093;-73
2021/07/15 07:05:55;;;;;;;25.25;8.07;;;;;;;17.44;74.22;101730.50;4994944;28;20058;-74
2021/07/15 07:08:21;;;;;;;24.58;8.52;;;;;;;17.27;75.40;101725.06;4994369;28;20447;-72
2021/07/15 07:10:46;;;;;;;26.77;8.77;;;;;;;17.46;75.36;101736.56;4994613;28;20026;-73
2021/07/15 07:13:11;;;;;;;25.30;8.05;;;;;;;17.53;74.41;101737.59;4994029;28;20493;-73
2021/07/15 07:15:37;;;;;;;33.67;8.75;;;;;;;17.44;74.66;101752.88;4994000;28;20049;-80
2021/07/15 07:18:03;;;;;;;27.63;7.78;;;;;;;17.34;74.86;101745.94;4994466;28;20065;-74
2021/07/15 07:20:29;;;;;;;24.10;8.80;;;;;;;17.15;75.84;101747.84;4994536;28;20026;-75
2021/07/15 07:22:54;;;;;;;26.17;8.40;;;;;;;17.24;75.54;101746.91;4994022;28;20045;-75
2021/07/15 07:25:19;;;;;;;21.63;7.40;;;;;;;17.35;75.21;101759.22;4992763;28;20470;-76
2021/07/15 07:27:45;;;;;;;28.25;8.65;;;;;;;17.35;74.67;101761.06;4995462;28;20046;-75
2021/07/15 07:30:14;;;;;;;22.35;8.18;;;;;;;17.40;75.25;101764.94;4994265;28;20422;-74
2021/07/15 07:32:40;;;;;;;30.50;8.02;;;;;;;17.50;74.76;101762.13;4994867;28;20030;-75
2021/07/15 07:35:07;;;;;;;29.83;8.85;;;;;;;17.33;74.75;101761.25;4993771;28;20466;-73
2021/07/15 07:37:33;;;;;;;29.80;8.57;;;;;;;17.27;75.44;101773.47;4993803;28;20544;-74
2021/07/15 07:39:59;;;;;;;26.02;8.00;;;;;;;17.23;75.59;101769.41;4993842;28;20486;-73
2021/07/15 07:42:25;;;;;;;20.52;7.85;;;;;;;17.33;74.95;101777.38;4994033;28;20041;-74
2021/07/15 07:44:51;;;;;;;23.25;7.65;;;;;;;17.54;74.16;101786.84;4993865;28;20485;-72
2021/07/15 07:47:16;;;;;;;24.60;7.68;;;;;;;17.51;73.59;101782.66;4993609;28;20034;-73
2021/07/15 07:49:42;;;;;;;20.13;7.60;;;;;;;17.64;73.53;101779.50;4993052;28;20034;-73
2021/07/15 07:52:07;;;;;;;25.77;7.78;;;;;;;17.88;73.04;101791.34;4993632;28;20503;-72
2021/07/15 07:54:33;;;;;;;21.30;6.78;;;;;;;18.11;72.76;101783.53;4993763;28;20092;-73
2021/07/15 07:56:59;;;;;;;24.08;7.85;;;;;;;18.09;72.31;101788.22;4993483;28;20046;-73
2021/07/15 07:59:24;;;;;;;24.73;7.03;;;;;;;18.00;72.15;101795.44;4993888;28;20027;-74
2021/07/15 08:01:50;;;;;;;23.27;7.97;;;;;;;17.83;72.87;101793.72;4993031;28;20038;-73
2021/07/15 08:04:15;;;;;;;25.55;8.15;;;;;;;17.87;72.59;101789.66;4993579;28;20050;-74
2021/07/15 08:06:42;;;;;;;23.15;7.55;;;;;;;18.23;71.39;101789.44;4993564;28;20100;-73
2021/07/15 08:09:12;;;;;;;19.58;6.90;;;;;;;18.79;68.99;101790.44;4993314;28;20434;-75
2021/07/15 08:11:37;;;;;;;21.25;7.75;;;;;;;19.44;67.47;101788.63;4993442;28;20550;-75
2021/07/15 08:14:03;;;;;;;20.83;6.93;;;;;;;19.53;67.07;101787.56;4993632;28;20030;-72
2021/07/15 08:16:28;;;;;;;26.83;7.32;;;;;;;19.51;66.42;101783.34;4995863;28;20062;-76
2021/07/15 08:18:54;;;;;;;17.23;6.53;;;;;;;19.30;67.29;101778.56;4997551;28;20105;-77
2021/07/15 08:21:21;;;;;;;21.50;7.75;;;;;;;19.15;68.39;101791.91;4997680;28;20038;-75
2021/07/15 08:23:48;;;;;;;24.23;7.50;;;;;;;19.05;67.57;101793.97;4997534;28;20027;-74
2021/07/15 08:26:14;;;;;;;15.43;6.63;;;;;;;18.89;68.61;101797.56;4997378;28;20109;-73
2021/07/15 08:28:39;;;;;;;27.45;7.80;;;;;;;18.61;69.91;101787.91;4997481;28;20037;-73
2021/07/15 08:31:05;;;;;;;26.17;7.43;;;;;;;18.52;69.52;101810.50;4997064;28;20058;-73
2021/07/15 08:33:30;;;;;;;22.02;6.78;;;;;;;18.55;69.62;101802.06;4996064;28;20110;-73
2021/07/15 08:35:56;;;;;;;29.65;8.25;;;;;;;18.24;71.19;101816.22;4996958;28;20112;-74
2021/07/15 08:38:23;;;;;;;24.70;8.07;;;;;;;18.08;71.36;101818.88;4997258;28;20062;-73
2021/07/15 08:40:49;;;;;;;28.08;8.50;;;;;;;17.98;71.71;101808.25;4997578;28;20038;-75
2021/07/15 08:43:15;;;;;;;20.35;8.00;;;;;;;17.91;72.35;101818.81;4996840;28;20030;-72
2021/07/15 08:45:42;;;;;;;21.13;7.43;;;;;;;18.00;71.40;101822.38;4997204;28;20030;-73
2021/07/15 08:48:10;;;;;;;23.08;7.28;;;;;;;18.00;71.15;101822.38;4996523;28;20477;-74
2021/07/15 08:50:36;;;;;;;25.20;7.55;;;;;;;18.13;71.19;101828.13;4997129;28;20092;-73
2021/07/15 08:53:01;;;;;;;21.70;7.78;;;;;;;18.19;70.51;101829.31;4996861;28;20030;-73
2021/07/15 08:58:14;;;;;;;30.42;8.38;;;;;;;18.00;71.76;101830.44;4996648;28;20034;-72
2021/07/15 09:00:40;;;;;;;20.60;7.88;;;;;;;17.89;71.94;101828.03;4996550;28;20036;-73
2021/07/15 09:03:06;;;;;;;24.35;8.23;;;;;;;18.09;71.75;101825.94;4996527;28;20030;-74
2021/07/15 09:05:32;;;;;;;25.35;7.95;;;;;;;18.27;70.58;101821.28;4996636;28;20106;-73
2021/07/15 09:07:57;;;;;;;19.77;7.35;;;;;;;18.05;71.13;101835.34;4996401;28;20038;-74
2021/07/15 09:10:23;;;;;;;23.15;7.45;;;;;;;18.03;71.52;101837.38;4996735;28;20026;-73
2021/07/15 09:12:48;;;;;;;23.83;7.60;;;;;;;18.12;71.16;101849.84;4996616;28;20039;-72
2021/07/15 09:15:14;;;;;;;21.25;6.68;;;;;;;18.29;69.86;101848.03;4996873;28;20056;-74
2021/07/15 09:17:40;;;;;;;22.60;7.55;;;;;;;18.56;69.32;101848.75;4996962;28;20121;-73
2021/07/15 09:20:16;;;;;;;23.13;7.50;;;;;;;18.34;68.91;101848.38;4997059;28;20037;-76
2021/07/15 09:23:04;;;;;;;18.60;7.28;;;;;;;18.10;70.16;101852.69;4996062;28;20034;-73
2021/07/15 09:25:49;;;;;;;17.42;7.35;;;;;;;18.10;70.55;101868.84;4996185;28;20081;-74
2021/07/15 09:28:17;;;;;;;18.05;7.13;;;;;;;17.86;70.72;101869.59;4994869;28;20437;-73
2021/07/15 09:30:44;;;;;;;19.17;7.47;;;;;;;17.73;71.59;101861.13;4996075;28;20129;-74
2021/07/15 09:33:12;;;;;;;21.75;8.35;;;;;;;17.78;72.11;101873.09;5011198;28;20552;-74
2021/07/15 09:35:40;;;;;;;16.60;7.55;;;;;;;17.89;72.21;101869.28;4996119;28;20510;-73
2021/07/15 09:38:09;;;;;;;24.27;8.05;;;;;;;17.95;71.55;101865.94;4995871;28;20034;-74
2021/07/15 09:40:38;;;;;;;25.00;7.90;;;;;;;18.24;70.95;101866.53;4996642;28;20084;-74
2021/07/15 09:43:34;;;;;;;24.95;7.78;;;;;;;18.45;70.13;101866.94;4995944;28;20034;-74
2021/07/15 09:46:14;;;;;;;22.60;7.20;;;;;;;18.36;70.51;101856.28;4990918;28;20039;-74
2021/07/15 09:49:03;;;;;;;25.20;7.25;;;;;;;18.43;69.99;101863.53;4996128;28;20030;-73
2021/07/15 09:51:40;;;;;;;17.65;7.45;;;;;;;18.68;69.54;101858.19;4996174;28;20108;-74
2021/07/15 09:54:06;;;;;;;16.52;7.15;;;;;;;18.86;68.95;101860.75;4996383;28;20038;-73
2021/07/15 09:56:49;;;;;;;23.17;8.23;;;;;;;19.03;67.85;101870.50;4996068;28;20039;-73
2021/07/15 09:59:14;;;;;;;23.52;7.28;;;;;;;19.02;67.75;101866.13;4996460;28;20347;-75
2021/07/15 10:01:58;;;;;;;19.40;7.50;;;;;;;18.45;69.05;101866.06;4995729;28;20080;-74
2021/07/15 10:04:26;;;;;;;18.00;7.30;;;;;;;18.26;69.70;101876.13;4995701;28;20383;-75
2021/07/15 10:06:54;;;;;;;24.67;7.55;;;;;;;18.30;69.58;101882.03;4995466;28;20062;-74
2021/07/15 10:09:31;;;;;;;23.00;8.48;;;;;;;18.47;69.78;101877.53;4995394;28;20034;-74
2021/07/15 10:12:00;;;;;;;22.52;7.88;;;;;;;18.55;69.47;101877.53;4996247;28;20072;-75
2021/07/15 10:14:41;;;;;;;20.95;8.30;;;;;;;18.61;69.81;101882.25;4996116;28;20031;-74
2021/07/15 10:17:08;;;;;;;24.00;7.78;;;;;;;18.78;69.33;101879.56;4995266;28;20038;-74
2021/07/15 10:19:33;;;;;;;21.27;7.47;;;;;;;18.72;69.44;101874.84;4995285;28;20058;-74
2021/07/15 10:22:02;;;;;;;23.90;8.32;;;;;;;18.49;70.19;101870.13;4995555;28;20041;-74
2021/07/15 10:24:28;;;;;;;19.50;7.82;;;;;;;18.63;69.31;101880.25;4995227;28;20035;-74
2021/07/15 10:26:59;;;;;;;26.48;7.82;;;;;;;18.40;70.20;101887.28;4995745;28;20039;-73
2021/07/15 10:29:25;;;;;;;27.88;8.38;;;;;;;18.47;70.68;101885.63;4995257;28;20026;-73
2021/07/15 10:31:53;;;;;;;19.75;7.72;;;;;;;18.46;69.84;101887.44;4993835;28;20129;-74
2021/07/15 10:34:19;;;;;;;20.25;7.72;;;;;;;18.76;69.17;101885.13;4995323;28;20066;-74
2021/07/15 10:36:45;;;;;;;19.38;7.97;;;;;;;18.69;69.55;101886.84;4995132;28;20113;-73
2021/07/15 10:39:14;;;;;;;21.30;7.78;;;;;;;18.54;69.74;101888.47;4994972;28;20058;-73
2021/07/15 10:41:44;;;;;;;25.15;8.10;;;;;;;18.46;70.05;101887.44;4994638;28;20529;-75
2021/07/15 10:44:10;;;;;;;22.40;8.48;;;;;;;18.90;68.35;101889.06;4995047;28;20034;-74
2021/07/15 10:46:36;;;;;;;19.23;8.15;;;;;;;18.79;68.15;101887.47;4994799;28;20489;-74
2021/07/15 10:49:03;;;;;;;20.23;7.75;;;;;;;18.70;69.08;101895.75;4995623;28;20038;-74
2021/07/15 10:51:28;;;;;;;25.23;8.40;;;;;;;18.61;69.15;101900.28;4994838;28;20070;-74
2021/07/15 10:53:54;;;;;;;20.60;8.13;;;;;;;18.50;69.87;101899.59;4995106;28;20088;-73
2021/07/15 10:56:20;;;;;;;18.85;7.93;;;;;;;18.57;69.89;101890.84;4994237;28;20042;-74
2021/07/15 10:58:51;;;;;;;20.10;7.68;;;;;;;18.45;70.08;101895.69;4994830;28;20034;-74
2021/07/15 11:01:32;;;;;;;;;;;;;;;18.46;69.85;101890.16;4995294;28;20030;-74
2021/07/15 11:04:30;;;;;;;15.70;6.97;;;;;;;18.55;69.53;101896.41;4995863;28;19910;-73
2021/07/15 11:06:57;;;;;;;16.23;6.97;;;;;;;18.74;68.88;101879.06;4986593;28;20121;-74
2021/07/15 11:09:22;;;;;;;19.23;7.55;;;;;;;19.01;68.43;101888.69;4992902;28;20080;-77
2021/07/15 11:11:48;;;;;;;23.08;7.38;;;;;;;19.17;67.91;101892.41;4994400;28;20034;-75
2021/07/15 11:14:33;;;;;;;19.10;7.57;;;;;;;19.26;67.26;101894.09;4976648;28;20056;-75
2021/07/15 11:16:58;;;;;;;16.48;6.90;;;;;;;19.45;66.56;101894.72;4994332;28;20037;-76
2021/07/15 11:19:57;;;;;;;16.83;7.10;;;;;;;20.16;65.02;101901.06;4993915;28;20026;-74
2021/07/15 11:22:34;;;;;;;16.10;6.50;;;;;;;19.91;65.72;101900.34;4994416;28;20041;-75